sensor_id;sensor_type;location;lat;lon;timestamp;pressure;altitude;pressure_sealevel;temperature;humidity
64632;BME280;58358;50.936;0.246;2023-08-07T00:01:37;101398.09;;;11.62;97.82
64632;BME280;58358;50.936;0.246;2023-08-07T00:04:03;101401.22;;;11.40;100.00
64632;BME280;58358;50.936;0.246;2023-08-07T00:06:28;101402.71;;;11.78;98.10
64632;BME280;58358;50.936;0.246;2023-08-07T00:08:54;101399.32;;;11.69;100.00
64632;BME280;58358;50.936;0.246;2023-08-07T00:11:20;101401.23;;;11.32;100.00
64632;BME280;58358;50.936;0.246;2023-08-07T00:13:46;101402.68;;;12.24;95.07
64632;BME280;58358;50.936;0.246;2023-08-07T00:16:12;101403.52;;;12.70;90.77
64632;BME280;58358;50.936;0.246;2023-08-07T00:18:37;101404.56;;;13.08;87.14
64632;BME280;58358;50.936;0.246;2023-08-07T00:21:03;101407.71;;;11.67;95.19
64632;BME280;58358;50.936;0.246;2023-08-07T00:23:29;101409.47;;;12.88;90.99
64632;BME280;58358;50.936;0.246;2023-08-07T00:25:55;101406.31;;;12.35;92.59
64632;BME280;58358;50.936;0.246;2023-08-07T00:28:20;101409.36;;;12.61;91.70
64632;BME280;58358;50.936;0.246;2023-08-07T00:30:46;101412.74;;;12.50;91.31
64632;BME280;58358;50.936;0.246;2023-08-07T00:33:12;101406.89;;;11.71;95.33
64632;BME280;58358;50.936;0.246;2023-08-07T00:35:38;101409.79;;;11.45;100.00
64632;BME280;58358;50.936;0.246;2023-08-07T00:38:03;101405.65;;;12.38;95.44
64632;BME280;58358;50.936;0.246;2023-08-07T00:40:37;101403.42;;;11.35;96.09
64632;BME280;58358;50.936;0.246;2023-08-07T00:42:55;101399.66;;;12.27;97.47
64632;BME280;58358;50.936;0.246;2023-08-07T00:45:21;101401.41;;;11.52;100.00
64632;BME280;58358;50.936;0.246;2023-08-07T00:47:47;101398.09;;;11.91;100.00
64632;BME280;58358;50.936;0.246;2023-08-07T00:50:12;101395.87;;;11.77;95.74
64632;BME280;58358;50.936;0.246;2023-08-07T00:52:38;101398.37;;;11.16;99.37
64632;BME280;58358;50.936;0.246;2023-08-07T00:55:04;101400.27;;;11.00;99.83
64632;BME280;58358;50.936;0.246;2023-08-07T00:57:30;101395.01;;;9.70;100.00
64632;BME280;58358;50.936;0.246;2023-08-07T00:59:55;101395.73;;;10.90;100.00
64632;BME280;58358;50.936;0.246;2023-08-07T01:02:21;101398.34;;;10.47;100.00
64632;BME280;58358;50.936;0.246;2023-08-07T01:04:47;101390.17;;;11.71;100.00
64632;BME280;58358;50.936;0.246;2023-08-07T01:07:12;101397.61;;;10.86;100.00
64632;BME280;58358;50.936;0.246;2023-08-07T01:09:38;101396.76;;;11.13;100.00
64632;BME280;58358;50.936;0.246;2023-08-07T01:12:13;101396.91;;;10.67;100.00
64632;BME280;58358;50.936;0.246;2023-08-07T01:14:37;101394.29;;;11.55;100.00
64632;BME280;58358;50.936;0.246;2023-08-07T01:16:59;101396.62;;;10.89;100.00
64632;BME280;58358;50.936;0.246;2023-08-07T01:19:24;101400.78;;;11.40;100.00
64632;BME280;58358;50.936;0.246;2023-08-07T01:21:48;101396.18;;;11.80;97.97
64632;BME280;58358;50.936;0.246;2023-08-07T01:24:13;101395.59;;;12.01;94.25
64632;BME280;58358;50.936;0.246;2023-08-07T01:26:39;101391.24;;;11.83;99.67
64632;BME280;58358;50.936;0.246;2023-08-07T01:29:09;101389.80;;;11.63;98.78
64632;BME280;58358;50.936;0.246;2023-08-07T01:31:33;101389.72;;;11.37;97.58
64632;BME280;58358;50.936;0.246;2023-08-07T01:34:01;101394.10;;;10.68;100.00
64632;BME280;58358;50.936;0.246;2023-08-07T01:36:23;101396.28;;;11.18;100.00
64632;BME280;58358;50.936;0.246;2023-08-07T01:38:49;101392.70;;;11.21;100.00
64632;BME280;58358;50.936;0.246;2023-08-07T01:41:13;101391.26;;;11.82;100.00
64632;BME280;58358;50.936;0.246;2023-08-07T01:43:39;101391.53;;;11.02;100.00
64632;BME280;58358;50.936;0.246;2023-08-07T01:46:05;101391.06;;;11.42;100.00
64632;BME280;58358;50.936;0.246;2023-08-07T01:48:30;101395.88;;;10.83;100.00
64632;BME280;58358;50.936;0.246;2023-08-07T01:50:56;101391.80;;;11.00;100.00
64632;BME280;58358;50.936;0.246;2023-08-07T01:53:22;101391.13;;;11.12;100.00
64632;BME280;58358;50.936;0.246;2023-08-07T01:55:48;101391.65;;;10.28;100.00
64632;BME280;58358;50.936;0.246;2023-08-07T01:58:14;101386.86;;;11.34;100.00
64632;BME280;58358;50.936;0.246;2023-08-07T02:00:40;101387.77;;;10.82;100.00
64632;BME280;58358;50.936;0.246;2023-08-07T02:03:05;101383.32;;;11.31;100.00
64632;BME280;58358;50.936;0.246;2023-08-07T02:05:31;101383.60;;;10.82;100.00
64632;BME280;58358;50.936;0.246;2023-08-07T02:07:57;101383.36;;;10.00;100.00
64632;BME280;58358;50.936;0.246;2023-08-07T02:10:23;101383.66;;;10.08;100.00
64632;BME280;58358;50.936;0.246;2023-08-07T02:12:49;101383.90;;;10.27;100.00
64632;BME280;58358;50.936;0.246;2023-08-07T02:15:14;101382.94;;;11.23;100.00
64632;BME280;58358;50.936;0.246;2023-08-07T02:17:40;101384.82;;;11.33;100.00
64632;BME280;58358;50.936;0.246;2023-08-07T02:20:07;101385.00;;;10.98;100.00
64632;BME280;58358;50.936;0.246;2023-08-07T02:22:31;101383.56;;;11.55;98.06
64632;BME280;58358;50.936;0.246;2023-08-07T02:24:57;101385.03;;;11.75;95.00
64632;BME280;58358;50.936;0.246;2023-08-07T02:27:23;101394.22;;;11.50;95.88
64632;BME280;58358;50.936;0.246;2023-08-07T02:29:49;101394.23;;;11.28;96.39
64632;BME280;58358;50.936;0.246;2023-08-07T02:32:14;101393.76;;;11.17;97.67
64632;BME280;58358;50.936;0.246;2023-08-07T02:34:40;101395.73;;;11.58;98.07
64632;BME280;58358;50.936;0.246;2023-08-07T02:37:06;101398.68;;;10.98;100.00
64632;BME280;58358;50.936;0.246;2023-08-07T02:39:32;101399.25;;;11.02;100.00
64632;BME280;58358;50.936;0.246;2023-08-07T02:41:58;101404.42;;;11.31;99.21
64632;BME280;58358;50.936;0.246;2023-08-07T02:44:23;101403.71;;;11.34;99.84
64632;BME280;58358;50.936;0.246;2023-08-07T02:46:49;101405.30;;;11.06;99.80
64632;BME280;58358;50.936;0.246;2023-08-07T02:49:15;101406.61;;;11.39;96.73
64632;BME280;58358;50.936;0.246;2023-08-07T02:51:41;101406.29;;;11.00;98.79
64632;BME280;58358;50.936;0.246;2023-08-07T02:54:07;101405.22;;;10.16;100.00
64632;BME280;58358;50.936;0.246;2023-08-07T02:56:32;101402.20;;;10.81;97.66
64632;BME280;58358;50.936;0.246;2023-08-07T02:58:58;101403.07;;;10.92;99.56
64632;BME280;58358;50.936;0.246;2023-08-07T03:01:24;101401.27;;;10.50;100.00
64632;BME280;58358;50.936;0.246;2023-08-07T03:03:50;101398.63;;;11.33;97.59
64632;BME280;58358;50.936;0.246;2023-08-07T03:06:16;101394.03;;;11.24;100.00
64632;BME280;58358;50.936;0.246;2023-08-07T03:08:41;101393.61;;;11.08;98.14
64632;BME280;58358;50.936;0.246;2023-08-07T03:11:07;101393.60;;;11.60;96.14
64632;BME280;58358;50.936;0.246;2023-08-07T03:13:33;101393.21;;;11.44;94.05
64632;BME280;58358;50.936;0.246;2023-08-07T03:15:59;101392.24;;;11.98;90.44
64632;BME280;58358;50.936;0.246;2023-08-07T03:18:24;101392.47;;;10.89;94.10
64632;BME280;58358;50.936;0.246;2023-08-07T03:20:50;101394.15;;;9.77;96.05
64632;BME280;58358;50.936;0.246;2023-08-07T03:23:16;101396.24;;;10.49;98.70
64632;BME280;58358;50.936;0.246;2023-08-07T03:25:41;101397.52;;;10.77;99.82
64632;BME280;58358;50.936;0.246;2023-08-07T03:28:07;101393.45;;;11.02;95.48
64632;BME280;58358;50.936;0.246;2023-08-07T03:30:33;101389.69;;;10.00;100.00
64632;BME280;58358;50.936;0.246;2023-08-07T03:32:59;101392.15;;;9.57;100.00
64632;BME280;58358;50.936;0.246;2023-08-07T03:35:25;101391.96;;;10.77;100.00
64632;BME280;58358;50.936;0.246;2023-08-07T03:37:50;101390.12;;;11.06;94.51
64632;BME280;58358;50.936;0.246;2023-08-07T03:40:16;101389.88;;;11.96;90.98
64632;BME280;58358;50.936;0.246;2023-08-07T03:42:42;101388.76;;;11.82;91.71
64632;BME280;58358;50.936;0.246;2023-08-07T03:45:08;101389.38;;;11.88;90.01
64632;BME280;58358;50.936;0.246;2023-08-07T03:47:33;101394.22;;;11.99;89.52
64632;BME280;58358;50.936;0.246;2023-08-07T03:49:59;101395.65;;;11.95;86.98
64632;BME280;58358;50.936;0.246;2023-08-07T03:52:25;101401.82;;;10.76;93.99
64632;BME280;58358;50.936;0.246;2023-08-07T03:54:51;101400.99;;;11.30;92.84
64632;BME280;58358;50.936;0.246;2023-08-07T03:57:16;101402.54;;;11.47;90.85
64632;BME280;58358;50.936;0.246;2023-08-07T03:59:42;101404.30;;;11.48;90.07
64632;BME280;58358;50.936;0.246;2023-08-07T04:02:08;101401.94;;;11.84;86.54
64632;BME280;58358;50.936;0.246;2023-08-07T04:04:34;101406.17;;;11.47;88.02
64632;BME280;58358;50.936;0.246;2023-08-07T04:07:00;101409.89;;;10.71;92.22
64632;BME280;58358;50.936;0.246;2023-08-07T04:09:25;101409.34;;;10.41;95.77
64632;BME280;58358;50.936;0.246;2023-08-07T04:11:51;101404.99;;;10.87;93.99
64632;BME280;58358;50.936;0.246;2023-08-07T04:14:17;101403.87;;;10.36;100.00
64632;BME280;58358;50.936;0.246;2023-08-07T04:16:43;101401.08;;;10.04;99.84
64632;BME280;58358;50.936;0.246;2023-08-07T04:19:08;101408.60;;;10.58;96.51
64632;BME280;58358;50.936;0.246;2023-08-07T04:21:34;101409.74;;;11.41;93.61
64632;BME280;58358;50.936;0.246;2023-08-07T04:24:00;101411.11;;;11.16;93.19
64632;BME280;58358;50.936;0.246;2023-08-07T04:26:26;101412.52;;;11.68;92.15
64632;BME280;58358;50.936;0.246;2023-08-07T04:28:52;101415.66;;;10.96;94.09
64632;BME280;58358;50.936;0.246;2023-08-07T04:31:17;101414.63;;;10.15;96.70
64632;BME280;58358;50.936;0.246;2023-08-07T04:33:43;101413.64;;;10.07;98.32
64632;BME280;58358;50.936;0.246;2023-08-07T04:36:09;101419.36;;;11.27;91.99
64632;BME280;58358;50.936;0.246;2023-08-07T04:38:35;101416.30;;;11.35;91.49
64632;BME280;58358;50.936;0.246;2023-08-07T04:41:01;101415.52;;;10.71;92.44
64632;BME280;58358;50.936;0.246;2023-08-07T04:43:26;101412.69;;;11.10;92.02
64632;BME280;58358;50.936;0.246;2023-08-07T04:45:53;101411.17;;;10.89;92.50
64632;BME280;58358;50.936;0.246;2023-08-07T04:48:18;101408.74;;;9.82;95.80
64632;BME280;58358;50.936;0.246;2023-08-07T04:50:44;101414.14;;;10.43;95.10
64632;BME280;58358;50.936;0.246;2023-08-07T04:53:10;101419.01;;;10.88;94.29
64632;BME280;58358;50.936;0.246;2023-08-07T04:55:35;101419.36;;;10.98;94.81
64632;BME280;58358;50.936;0.246;2023-08-07T04:58:01;101420.89;;;9.89;100.00
64632;BME280;58358;50.936;0.246;2023-08-07T05:00:27;101429.14;;;10.93;94.09
64632;BME280;58358;50.936;0.246;2023-08-07T05:02:53;101430.35;;;11.12;92.52
64632;BME280;58358;50.936;0.246;2023-08-07T05:05:19;101428.54;;;9.59;99.40
64632;BME280;58358;50.936;0.246;2023-08-07T05:07:44;101433.88;;;11.16;94.74
64632;BME280;58358;50.936;0.246;2023-08-07T05:10:10;101435.62;;;11.22;95.58
64632;BME280;58358;50.936;0.246;2023-08-07T05:12:36;101433.91;;;11.77;93.54
64632;BME280;58358;50.936;0.246;2023-08-07T05:15:02;101436.32;;;11.73;92.56
64632;BME280;58358;50.936;0.246;2023-08-07T05:17:28;101443.76;;;10.89;95.84
64632;BME280;58358;50.936;0.246;2023-08-07T05:19:54;101444.85;;;10.46;96.64
64632;BME280;58358;50.936;0.246;2023-08-07T05:22:19;101441.61;;;9.86;100.00
64632;BME280;58358;50.936;0.246;2023-08-07T05:24:45;101441.92;;;11.11;100.00
64632;BME280;58358;50.936;0.246;2023-08-07T05:27:10;101441.62;;;10.43;100.00
64632;BME280;58358;50.936;0.246;2023-08-07T05:29:36;101443.16;;;10.80;100.00
64632;BME280;58358;50.936;0.246;2023-08-07T05:32:02;101442.31;;;11.23;100.00
64632;BME280;58358;50.936;0.246;2023-08-07T05:34:28;101442.33;;;10.53;100.00
64632;BME280;58358;50.936;0.246;2023-08-07T05:36:53;101440.63;;;10.92;100.00
64632;BME280;58358;50.936;0.246;2023-08-07T05:39:20;101438.47;;;10.14;100.00
64632;BME280;58358;50.936;0.246;2023-08-07T05:41:45;101442.69;;;10.88;100.00
64632;BME280;58358;50.936;0.246;2023-08-07T05:44:11;101441.18;;;10.49;100.00
64632;BME280;58358;50.936;0.246;2023-08-07T05:46:37;101436.59;;;10.78;100.00
64632;BME280;58358;50.936;0.246;2023-08-07T05:49:02;101433.57;;;11.48;100.00
64632;BME280;58358;50.936;0.246;2023-08-07T05:51:28;101432.52;;;11.32;100.00
64632;BME280;58358;50.936;0.246;2023-08-07T05:53:54;101432.42;;;11.56;100.00
64632;BME280;58358;50.936;0.246;2023-08-07T05:56:20;101434.66;;;10.43;100.00
64632;BME280;58358;50.936;0.246;2023-08-07T05:58:45;101436.13;;;11.31;100.00
64632;BME280;58358;50.936;0.246;2023-08-07T06:01:11;101434.63;;;11.32;100.00
64632;BME280;58358;50.936;0.246;2023-08-07T06:03:37;101433.77;;;11.10;100.00
64632;BME280;58358;50.936;0.246;2023-08-07T06:06:03;101429.25;;;9.37;100.00
64632;BME280;58358;50.936;0.246;2023-08-07T06:08:28;101431.36;;;11.49;100.00
64632;BME280;58358;50.936;0.246;2023-08-07T06:10:54;101436.35;;;11.50;100.00
64632;BME280;58358;50.936;0.246;2023-08-07T06:13:20;101437.03;;;10.30;100.00
64632;BME280;58358;50.936;0.246;2023-08-07T06:15:45;101443.67;;;12.03;100.00
64632;BME280;58358;50.936;0.246;2023-08-07T06:18:11;101445.73;;;11.28;100.00
64632;BME280;58358;50.936;0.246;2023-08-07T06:20:37;101452.29;;;10.99;100.00
64632;BME280;58358;50.936;0.246;2023-08-07T06:23:02;101457.88;;;11.87;100.00
64632;BME280;58358;50.936;0.246;2023-08-07T06:25:28;101464.88;;;10.94;100.00
64632;BME280;58358;50.936;0.246;2023-08-07T06:27:54;101465.69;;;11.28;100.00
64632;BME280;58358;50.936;0.246;2023-08-07T06:30:20;101465.15;;;10.89;100.00
64632;BME280;58358;50.936;0.246;2023-08-07T06:32:46;101461.71;;;10.83;100.00
64632;BME280;58358;50.936;0.246;2023-08-07T06:35:11;101467.23;;;10.55;100.00
64632;BME280;58358;50.936;0.246;2023-08-07T06:37:37;101467.19;;;10.69;100.00
64632;BME280;58358;50.936;0.246;2023-08-07T06:40:03;101465.70;;;10.06;100.00
64632;BME280;58358;50.936;0.246;2023-08-07T06:42:28;101466.49;;;11.10;100.00
64632;BME280;58358;50.936;0.246;2023-08-07T06:44:54;101468.03;;;11.00;100.00
64632;BME280;58358;50.936;0.246;2023-08-07T06:47:20;101466.67;;;11.69;100.00
64632;BME280;58358;50.936;0.246;2023-08-07T06:49:44;101467.75;;;11.89;100.00
64632;BME280;58358;50.936;0.246;2023-08-07T06:52:10;101463.19;;;12.15;100.00
64632;BME280;58358;50.936;0.246;2023-08-07T06:54:36;101458.52;;;12.36;100.00
64632;BME280;58358;50.936;0.246;2023-08-07T06:57:02;101458.48;;;12.72;100.00
64632;BME280;58358;50.936;0.246;2023-08-07T06:59:27;101457.70;;;13.11;100.00
64632;BME280;58358;50.936;0.246;2023-08-07T07:01:53;101459.05;;;12.89;100.00
64632;BME280;58358;50.936;0.246;2023-08-07T07:04:19;101464.48;;;12.92;100.00
64632;BME280;58358;50.936;0.246;2023-08-07T07:06:45;101463.39;;;13.22;100.00
64632;BME280;58358;50.936;0.246;2023-08-07T07:09:10;101461.94;;;13.44;100.00
64632;BME280;58358;50.936;0.246;2023-08-07T07:11:36;101463.50;;;13.01;100.00
64632;BME280;58358;50.936;0.246;2023-08-07T07:14:02;101465.21;;;13.13;100.00
64632;BME280;58358;50.936;0.246;2023-08-07T07:16:27;101465.35;;;12.08;100.00
64632;BME280;58358;50.936;0.246;2023-08-07T07:18:54;101464.92;;;12.33;100.00
64632;BME280;58358;50.936;0.246;2023-08-07T07:21:19;101464.98;;;12.92;100.00
64632;BME280;58358;50.936;0.246;2023-08-07T07:23:44;101463.72;;;12.72;100.00
64632;BME280;58358;50.936;0.246;2023-08-07T07:26:10;101456.05;;;13.39;100.00
64632;BME280;58358;50.936;0.246;2023-08-07T07:28:36;101458.14;;;13.58;100.00
64632;BME280;58358;50.936;0.246;2023-08-07T07:31:02;101457.60;;;13.90;100.00
64632;BME280;58358;50.936;0.246;2023-08-07T07:33:27;101458.45;;;14.39;100.00
64632;BME280;58358;50.936;0.246;2023-08-07T07:35:53;101461.56;;;13.84;100.00
64632;BME280;58358;50.936;0.246;2023-08-07T07:38:19;101460.12;;;14.18;100.00
64632;BME280;58358;50.936;0.246;2023-08-07T07:40:44;101459.66;;;14.47;99.98
64632;BME280;58358;50.936;0.246;2023-08-07T07:43:10;101455.88;;;13.83;100.00
64632;BME280;58358;50.936;0.246;2023-08-07T07:45:36;101454.12;;;13.76;100.00
64632;BME280;58358;50.936;0.246;2023-08-07T07:48:02;101451.21;;;13.94;100.00
64632;BME280;58358;50.936;0.246;2023-08-07T07:50:27;101447.28;;;14.26;100.00
64632;BME280;58358;50.936;0.246;2023-08-07T07:52:53;101449.85;;;13.59;100.00
64632;BME280;58358;50.936;0.246;2023-08-07T07:55:18;101450.66;;;13.71;100.00
64632;BME280;58358;50.936;0.246;2023-08-07T07:57:44;101448.06;;;14.55;99.57
64632;BME280;58358;50.936;0.246;2023-08-07T08:00:11;101449.09;;;14.14;100.00
64632;BME280;58358;50.936;0.246;2023-08-07T08:02:35;101446.70;;;13.93;100.00
64632;BME280;58358;50.936;0.246;2023-08-07T08:05:01;101444.49;;;14.08;100.00
64632;BME280;58358;50.936;0.246;2023-08-07T08:07:27;101447.79;;;13.17;100.00
64632;BME280;58358;50.936;0.246;2023-08-07T08:09:52;101448.80;;;14.91;98.71
64632;BME280;58358;50.936;0.246;2023-08-07T08:12:18;101448.12;;;15.34;94.37
64632;BME280;58358;50.936;0.246;2023-08-07T08:14:44;101445.61;;;14.48;95.45
64632;BME280;58358;50.936;0.246;2023-08-07T08:17:09;101445.19;;;13.24;100.00
64632;BME280;58358;50.936;0.246;2023-08-07T08:19:35;101441.55;;;14.61;100.00
64632;BME280;58358;50.936;0.246;2023-08-07T08:22:01;101445.31;;;14.30;100.00
64632;BME280;58358;50.936;0.246;2023-08-07T08:24:27;101455.38;;;14.22;99.62
64632;BME280;58358;50.936;0.246;2023-08-07T08:26:52;101457.71;;;14.22;98.70
64632;BME280;58358;50.936;0.246;2023-08-07T08:29:18;101456.89;;;14.86;96.80
64632;BME280;58358;50.936;0.246;2023-08-07T08:31:44;101459.57;;;14.50;97.57
64632;BME280;58358;50.936;0.246;2023-08-07T08:34:09;101470.32;;;14.40;98.56
64632;BME280;58358;50.936;0.246;2023-08-07T08:36:35;101478.63;;;14.91;97.35
64632;BME280;58358;50.936;0.246;2023-08-07T08:39:00;101478.98;;;15.31;93.67
64632;BME280;58358;50.936;0.246;2023-08-07T08:41:26;101475.78;;;14.88;95.21
64632;BME280;58358;50.936;0.246;2023-08-07T08:43:52;101481.70;;;14.27;94.19
64632;BME280;58358;50.936;0.246;2023-08-07T08:46:19;101480.64;;;15.22;93.68
64632;BME280;58358;50.936;0.246;2023-08-07T08:48:46;101475.30;;;15.48;90.22
64632;BME280;58358;50.936;0.246;2023-08-07T08:51:09;101474.52;;;15.28;93.46
64632;BME280;58358;50.936;0.246;2023-08-07T08:53:35;101470.89;;;14.63;94.50
64632;BME280;58358;50.936;0.246;2023-08-07T08:56:01;101470.51;;;15.08;91.56
64632;BME280;58358;50.936;0.246;2023-08-07T08:58:26;101469.04;;;14.95;94.04
64632;BME280;58358;50.936;0.246;2023-08-07T09:00:51;101471.80;;;15.24;93.37
64632;BME280;58358;50.936;0.246;2023-08-07T09:03:18;101468.69;;;14.18;94.74
64632;BME280;58358;50.936;0.246;2023-08-07T09:05:43;101467.42;;;15.40;90.17
64632;BME280;58358;50.936;0.246;2023-08-07T09:08:09;101478.06;;;15.69;88.44
64632;BME280;58358;50.936;0.246;2023-08-07T09:10:34;101479.22;;;14.53;90.80
64632;BME280;58358;50.936;0.246;2023-08-07T09:13:01;101474.36;;;15.18;87.94
64632;BME280;58358;50.936;0.246;2023-08-07T09:15:25;101474.90;;;15.67;84.44
64632;BME280;58358;50.936;0.246;2023-08-07T09:17:51;101471.74;;;14.56;88.71
64632;BME280;58358;50.936;0.246;2023-08-07T09:20:17;101476.82;;;15.18;85.81
64632;BME280;58358;50.936;0.246;2023-08-07T09:22:42;101466.47;;;15.32;81.11
64632;BME280;58358;50.936;0.246;2023-08-07T09:25:09;101467.29;;;14.72;83.74
64632;BME280;58358;50.936;0.246;2023-08-07T09:27:33;101471.02;;;15.27;83.06
64632;BME280;58358;50.936;0.246;2023-08-07T09:29:59;101477.49;;;15.57;80.44
64632;BME280;58358;50.936;0.246;2023-08-07T09:32:25;101471.74;;;16.19;82.04
64632;BME280;58358;50.936;0.246;2023-08-07T09:34:51;101469.01;;;16.85;77.38
64632;BME280;58358;50.936;0.246;2023-08-07T09:37:16;101476.04;;;15.87;81.75
64632;BME280;58358;50.936;0.246;2023-08-07T09:39:42;101477.63;;;15.51;86.74
64632;BME280;58358;50.936;0.246;2023-08-07T09:42:13;101477.10;;;16.04;81.77
64632;BME280;58358;50.936;0.246;2023-08-07T09:44:36;101468.83;;;16.34;76.63
64632;BME280;58358;50.936;0.246;2023-08-07T09:46:58;101465.23;;;17.31;74.08
64632;BME280;58358;50.936;0.246;2023-08-07T09:49:32;101475.98;;;15.90;79.83
64632;BME280;58358;50.936;0.246;2023-08-07T09:51:50;101477.24;;;16.29;76.42
64632;BME280;58358;50.936;0.246;2023-08-07T09:54:15;101472.48;;;16.77;77.15
64632;BME280;58358;50.936;0.246;2023-08-07T09:56:41;101461.93;;;16.83;72.11
64632;BME280;58358;50.936;0.246;2023-08-07T09:59:07;101464.96;;;17.31;71.05
64632;BME280;58358;50.936;0.246;2023-08-07T10:01:32;101466.27;;;18.19;68.62
64632;BME280;58358;50.936;0.246;2023-08-07T10:03:58;101465.56;;;18.31;68.81
64632;BME280;58358;50.936;0.246;2023-08-07T10:06:23;101464.08;;;18.53;65.71
64632;BME280;58358;50.936;0.246;2023-08-07T10:08:49;101466.12;;;18.46;65.37
64632;BME280;58358;50.936;0.246;2023-08-07T10:11:14;101461.74;;;17.51;65.26
64632;BME280;58358;50.936;0.246;2023-08-07T10:13:40;101464.91;;;17.36;64.61
64632;BME280;58358;50.936;0.246;2023-08-07T10:16:06;101465.65;;;17.48;67.30
64632;BME280;58358;50.936;0.246;2023-08-07T10:18:31;101466.38;;;17.57;68.27
64632;BME280;58358;50.936;0.246;2023-08-07T10:20:57;101467.00;;;18.16;66.55
64632;BME280;58358;50.936;0.246;2023-08-07T10:23:22;101464.32;;;17.20;66.75
64632;BME280;58358;50.936;0.246;2023-08-07T10:25:49;101465.03;;;16.76;71.11
64632;BME280;58358;50.936;0.246;2023-08-07T10:28:16;101456.20;;;17.57;68.62
64632;BME280;58358;50.936;0.246;2023-08-07T10:30:41;101451.34;;;16.80;68.68
64632;BME280;58358;50.936;0.246;2023-08-07T10:33:05;101442.16;;;17.30;65.33
64632;BME280;58358;50.936;0.246;2023-08-07T10:35:31;101441.55;;;16.89;63.00
64632;BME280;58358;50.936;0.246;2023-08-07T10:38:05;101444.61;;;15.95;67.15
64632;BME280;58358;50.936;0.246;2023-08-07T10:40:21;101437.18;;;16.94;65.39
64632;BME280;58358;50.936;0.246;2023-08-07T10:42:52;101439.53;;;16.88;65.77
64632;BME280;58358;50.936;0.246;2023-08-07T10:45:17;101443.29;;;16.13;67.62
64632;BME280;58358;50.936;0.246;2023-08-07T10:47:39;101436.62;;;16.58;62.94
64632;BME280;58358;50.936;0.246;2023-08-07T10:50:04;101440.03;;;16.66;63.59
64632;BME280;58358;50.936;0.246;2023-08-07T10:52:29;101439.42;;;17.03;66.24
64632;BME280;58358;50.936;0.246;2023-08-07T10:54:55;101434.56;;;17.57;62.20
64632;BME280;58358;50.936;0.246;2023-08-07T10:57:20;101443.20;;;16.11;64.56
64632;BME280;58358;50.936;0.246;2023-08-07T10:59:50;101432.14;;;16.95;61.81
64632;BME280;58358;50.936;0.246;2023-08-07T11:02:22;101426.86;;;17.14;62.94
64632;BME280;58358;50.936;0.246;2023-08-07T11:04:37;101424.02;;;16.83;62.70
64632;BME280;58358;50.936;0.246;2023-08-07T11:07:02;101426.82;;;18.11;60.74
64632;BME280;58358;50.936;0.246;2023-08-07T11:09:28;101428.63;;;17.71;59.50
64632;BME280;58358;50.936;0.246;2023-08-07T11:11:53;101429.47;;;18.40;59.05
64632;BME280;58358;50.936;0.246;2023-08-07T11:14:19;101431.35;;;17.57;61.12
64632;BME280;58358;50.936;0.246;2023-08-07T11:16:45;101421.56;;;18.45;61.15
64632;BME280;58358;50.936;0.246;2023-08-07T11:19:11;101414.66;;;18.71;59.10
64632;BME280;58358;50.936;0.246;2023-08-07T11:21:36;101412.27;;;17.94;57.11
64632;BME280;58358;50.936;0.246;2023-08-07T11:24:01;101405.69;;;18.28;55.55
64632;BME280;58358;50.936;0.246;2023-08-07T11:26:26;101411.52;;;17.35;59.75
64632;BME280;58358;50.936;0.246;2023-08-07T11:28:52;101410.73;;;18.62;57.58
64632;BME280;58358;50.936;0.246;2023-08-07T11:31:17;101420.36;;;19.29;55.05
64632;BME280;58358;50.936;0.246;2023-08-07T11:33:43;101411.89;;;19.40;53.79
64632;BME280;58358;50.936;0.246;2023-08-07T11:36:12;101416.64;;;18.17;53.50
64632;BME280;58358;50.936;0.246;2023-08-07T11:38:37;101411.31;;;19.23;49.66
64632;BME280;58358;50.936;0.246;2023-08-07T11:41:01;101413.48;;;18.94;50.92
64632;BME280;58358;50.936;0.246;2023-08-07T11:43:27;101407.23;;;18.81;50.83
64632;BME280;58358;50.936;0.246;2023-08-07T11:45:51;101398.64;;;18.55;54.26
64632;BME280;58358;50.936;0.246;2023-08-07T11:48:16;101404.92;;;17.62;52.80
64632;BME280;58358;50.936;0.246;2023-08-07T11:50:42;101392.04;;;17.89;60.62
64632;BME280;58358;50.936;0.246;2023-08-07T11:53:08;101400.91;;;18.40;62.87
64632;BME280;58358;50.936;0.246;2023-08-07T11:55:33;101399.90;;;17.69;66.25
64632;BME280;58358;50.936;0.246;2023-08-07T11:57:59;101394.94;;;18.50;63.66
64632;BME280;58358;50.936;0.246;2023-08-07T12:00:25;101394.61;;;19.02;61.66
64632;BME280;58358;50.936;0.246;2023-08-07T12:02:50;101400.29;;;18.12;62.19
64632;BME280;58358;50.936;0.246;2023-08-07T12:05:16;101392.76;;;18.02;61.13
64632;BME280;58358;50.936;0.246;2023-08-07T12:07:41;101388.16;;;18.90;61.57
64632;BME280;58358;50.936;0.246;2023-08-07T12:10:07;101383.83;;;19.07;61.94
64632;BME280;58358;50.936;0.246;2023-08-07T12:12:33;101385.45;;;19.64;56.09
64632;BME280;58358;50.936;0.246;2023-08-07T12:14:58;101371.62;;;18.27;60.58
64632;BME280;58358;50.936;0.246;2023-08-07T12:17:23;101374.20;;;18.44;61.11
64632;BME280;58358;50.936;0.246;2023-08-07T12:19:50;101374.37;;;18.57;61.82
64632;BME280;58358;50.936;0.246;2023-08-07T12:22:19;101374.20;;;19.83;60.22
64632;BME280;58358;50.936;0.246;2023-08-07T12:24:41;101370.47;;;18.98;60.05
64632;BME280;58358;50.936;0.246;2023-08-07T12:27:07;101370.53;;;19.24;56.75
64632;BME280;58358;50.936;0.246;2023-08-07T12:29:31;101370.92;;;18.59;60.89
64632;BME280;58358;50.936;0.246;2023-08-07T12:31:57;101370.24;;;18.64;63.56
64632;BME280;58358;50.936;0.246;2023-08-07T12:34:23;101370.07;;;18.54;65.14
64632;BME280;58358;50.936;0.246;2023-08-07T12:36:48;101371.59;;;17.50;65.72